Clinchfield, GA

2:26 PM EDT on September 02, 2015 (GMT -0400)
Avington Glenn | | Change Station
CLOSE
Current Station
Personal Weather Station
Location: Perry, GA
Elevation: 335 ft
Nearby Weather Stations

Elev 335 ft 32.47 °N, 83.68 °W | Updated 5 minutes ago

Clear
Clear
95.9 °F
Feels Like 111 °F
N
1.1
Wind Variable Wind from SSW

Today
High -- | Low -- °F
--% Chance of Precip.
Yesterday
High -- | Low -- °F
Precip. -- in
7:10 AM 7:58 PM
Waning Gibbous, 78% visible
Pressure 30.05 in
Visibility 10.0 miles
Clouds Scattered Clouds 3400 ft
Heat Index 111 °F
Dew Point 77 °F
Humidity 55%
Rainfall 0.00 in
Snow Depth Not available.
UV 9 out of 12
Pollen 8.10 out of 12
Air Quality Not available.
Flu Activity Not available.
METAR KWRB 021758Z AUTO 10006KT 10SM SCT034 32/23 A3005 RMK AO2 SLP175 T03190232 10319 20222
Pressure 30.05 in
Visibility 10.0 miles
Clouds Scattered Clouds 3400 ft
Heat Index 111 °F
Dew Point 77 °F
Humidity 55%
Rainfall 0.00 in
Snow Depth Not available.
UV 9 out of 12
Pollen 8.10 out of 12
Air Quality Not available.
Flu Activity Not available.
METAR KWRB 021758Z AUTO 10006KT 10SM SCT034 32/23 A3005 RMK AO2 SLP175 T03190232 10319 20222

10-Day Weather Forecast

×

Almanac

Astronomy

Sep. 02, 2015 Rise Set
Actual Time
Civil Twilight
Nautical Twilight
Astronomical Twilight
Moon
Length of Visible Light
Length of Day
Tomorrow will be .
, % of the Moon is Illuminated

Today's Extremes

State Highs State Lows

Community

WunderPhotos

Upload Photos

1,851,791 photos uploaded!

WunderBlogs® & News

Nearby

Air Quality

  Air Quality AQ Index Pollutant
Not available.

Snow Depth

Station Depth Elevation

Earthquake Activity

City Distance Mag. Time & Date
Minimum magnitude displayed is 2.5.

Coastal Water Temperatures

Place Temperature

Stations

Nearby Weather Stations

Station Location Temp. Windchill Dew Point Humidity Wind Precip. Elev Updated Type